Latest Weather Observations for Snowtown

IDS60801

Issued at 5:35 am CST Thursday 2 October 2014 (issued every 30 minutes, with the page automatically refreshed every 10 minutes)

About weather observations | Map of weather stations | Latest weather observations for SA | Other Formats
Station Details ID: 021133 Name: RAYVILLE PARK Lat: -33.77 Lon: 138.22 Height: 109.1 m
Data from the previous 72 hours. | See also: Recent months at Snowtown
Date/Time
CST
Temp
°C
App
Temp
°C
Dew
Point
Rel
Hum
%
Delta-T
°C
Wind Press
QNH
hPa
Press
MSL
hPa
Rain
since 9 am
mm
Dir
 
Spd
km/h
Gust
km/h
Spd
kts
Gust
kts
02/05:30am 1.6 -1.3 1.2 97 0.2 WNW 6 9 3 5 1027.5 1027.4 0.0
02/05:00am 1.1 -1.9 0.5 96 0.2 WNW 6 7 3 4 1027.4 1027.3 0.0
02/04:30am 1.8 -1.3 1.4 97 0.2 W 7 9 4 5 1027.1 1027.0 0.0
02/04:00am 1.2 -1.1 0.6 96 0.2 SW 2 7 1 4 1026.9 1026.8 0.0
02/03:30am 2.3 -0.6 1.7 96 0.2 SW 6 7 3 4 1026.8 1026.7 0.0
02/03:00am 2.9 -0.1 2.3 96 0.2 SW 7 9 4 5 1026.8 1026.7 0.0
02/02:30am 3.0 0.6 2.4 96 0.2 SW 4 7 2 4 1026.9 1026.8 0.0
02/02:00am 3.5 -0.1 2.9 96 0.2 SW 11 13 6 7 1027.1 1027.0 0.0
02/01:30am 3.3 0.4 2.4 94 0.4 SW 7 9 4 5 1027.4 1027.3 0.0
02/01:00am 4.6 2.1 3.9 95 0.3 SW 6 7 3 4 1027.8 1027.7 0.0
02/12:30am 5.4 1.8 4.8 96 0.3 SW 13 15 7 8 1028.0 1027.9 0.0
02/12:00am 5.8 2.2 5.2 96 0.3 SW 13 17 7 9 1028.1 1028.0 0.0
 
Date/Time
CST
Temp
°C
App
Temp
°C
Dew
Point
Rel
Hum
%
Delta-T
°C
Wind Press
QNH
hPa
Press
MSL
hPa
Rain
since 9 am
mm
Dir
 
Spd
km/h
Gust
km/h
Spd
kts
Gust
kts
01/11:30pm 5.7 2.1 5.0 95 0.3 SW 13 15 7 8 1028.0 1027.9 0.0
01/11:00pm 5.5 2.2 4.6 94 0.4 SW 11 13 6 7 1028.1 1028.0 0.0
01/10:30pm 6.0 2.8 5.1 94 0.4 SW 11 13 6 7 1028.2 1028.1 0.0
01/10:00pm 5.6 2.3 4.6 93 0.4 SW 11 13 6 7 1028.3 1028.2 0.0
01/09:30pm 6.0 2.7 4.8 92 0.5 SW 11 13 6 7 1028.4 1028.3 0.0
01/09:00pm 6.5 3.0 5.3 92 0.5 SW 13 13 7 7 1028.3 1028.2 0.0
01/08:30pm 6.8 3.3 5.3 90 0.7 SW 13 13 7 7 1028.1 1028.0 0.0
01/08:00pm 7.7 4.7 5.8 88 0.9 SW 11 13 6 7 1027.9 1027.8 0.0
01/07:30pm 8.8 5.8 6.2 84 1.2 SW 11 13 6 7 1027.7 1027.6 0.0
01/07:00pm 11.4 7.8 6.9 74 2.2 S 15 20 8 11 1027.3 1027.2 0.0
01/06:30pm 12.2 8.6 6.7 69 2.6 SSW 15 20 8 11 1027.0 1026.9 0.0
01/06:00pm 13.7 9.2 6.3 61 3.5 SSW 19 26 10 14 1026.6 1026.5 0.0
01/05:30pm 15.2 10.4 4.6 49 4.9 SSW 19 30 10 16 1026.4 1026.3 0.0
01/05:00pm 16.1 11.0 3.9 44 5.7 SSW 20 28 11 15 1026.3 1026.2 0.0
01/04:30pm 16.8 11.3 4.2 43 5.9 SSW 22 32 12 17 1026.2 1026.1 0.0
01/04:00pm 17.3 11.4 3.9 41 6.3 SSW 24 32 13 17 1026.2 1026.1 0.0
01/03:30pm 17.8 12.4 4.4 41 6.4 SSW 22 30 12 16 1026.2 1026.1 0.0
01/03:00pm 18.6 13.9 5.1 41 6.5 SSW 19 28 10 15 1026.4 1026.3 0.0
01/02:30pm 19.1 14.6 6.2 43 6.4 S 19 32 10 17 1026.5 1026.4 0.0
01/02:00pm 18.9 15.5 6.1 43 6.4 SSE 13 24 7 13 1026.6 1026.5 0.0
01/01:30pm 18.7 14.3 6.5 45 6.1 SSW 19 30 10 16 1026.9 1026.8 0.0
01/01:00pm 17.4 13.2 5.7 46 5.7 S 17 33 9 18 1027.2 1027.1 0.0
01/12:30pm 17.8 13.0 5.4 44 6.0 S 20 28 11 15 1027.6 1027.5 0.0
01/12:00pm 17.8 14.3 7.0 49 5.4 S 15 24 8 13 1027.9 1027.8 0.0
01/11:30am 17.1 12.4 6.0 48 5.4 S 20 24 11 13 1028.2 1028.1 0.0
01/11:00am 16.7 12.0 5.3 47 5.5 SSE 19 30 10 16 1028.2 1028.1 0.0
01/10:30am 16.7 12.5 5.6 48 5.3 S 17 32 9 17 1028.3 1028.2 0.0
01/10:00am 15.4 11.4 6.7 56 4.3 SSE 17 24 9 13 1028.4 1028.3 0.0
01/09:30am 14.1 10.3 6.0 58 3.9 SE 15 24 8 13 1028.6 1028.5 0.0
01/09:00am 14.1 11.7 8.7 70 2.7 S 11 19 6 10 1028.4 1028.4 0.0
01/08:30am 12.0 10.3 8.3 78 1.8 S 7 11 4 6 1028.3 1028.3 0.0
01/08:00am 11.4 9.8 7.9 79 1.7 NW 6 7 3 4 1027.8 1027.8 0.0
01/07:30am 9.2 8.9 8.7 97 0.2 CALM 0 0 0 0 1027.5 1027.5 0.0
01/07:00am 6.6 5.4 6.5 99 0.0 NW 2 6 1 3 1027.2 1027.2 0.0
01/06:30am 3.1 0.2 2.8 98 0.1 NW 7 9 4 5 1026.8 1026.8 0.0
01/06:00am 2.2 -1.2 1.9 98 0.1 NW 9 11 5 6 1026.4 1026.4 0.0
01/05:30am 1.6 -1.5 1.2 97 0.2 WSW 7 11 4 6 1026.0 1026.0 0.0
01/05:00am 1.6 -0.6 1.0 96 0.2 SW 2 6 1 3 1025.5 1025.5 0.0
01/04:30am 2.2 -0.7 1.6 96 0.2 SW 6 7 3 4 1025.0 1025.0 0.0
01/04:00am 2.5 -0.5 1.9 96 0.2 SW 7 9 4 5 1024.8 1024.8 0.0
01/03:30am 2.9 -0.4 2.3 96 0.2 SW 9 11 5 6 1024.5 1024.5 0.0
01/03:00am 2.9 1.3 2.3 96 0.2 CALM 0 0 0 0 1024.4 1024.4 0.0
01/02:30am 3.2 1.6 2.6 96 0.2 CALM 0 0 0 0 1024.3 1024.3 0.0
01/02:00am 3.4 1.8 2.5 94 0.4 CALM 0 0 0 0 1024.1 1024.1 0.0
01/01:30am 4.3 2.8 3.0 91 0.5 CALM 0 0 0 0 1024.1 1024.1 0.0
01/01:00am 6.8 4.1 5.4 91 0.6 SW 9 11 5 6 1024.1 1024.1 0.0
01/12:30am 7.0 3.5 5.5 90 0.7 SSW 13 17 7 9 1023.9 1023.9 0.0
01/12:00am 7.6 4.3 6.4 92 0.5 SW 13 17 7 9 1023.7 1023.7 0.0
 
Date/Time
CST
Temp
°C
App
Temp
°C
Dew
Point
Rel
Hum
%
Delta-T
°C
Wind Press
QNH
hPa
Press
MSL
hPa
Rain
since 9 am
mm
Dir
 
Spd
km/h
Gust
km/h
Spd
kts
Gust
kts
30/11:30pm 8.7 5.7 7.5 92 0.6 SSW 13 17 7 9 1023.5 1023.5 0.0
30/11:00pm 9.4 6.2 8.5 94 0.4 SSW 15 22 8 12 1023.4 1023.4 0.0
30/10:30pm 8.5 6.5 7.1 91 0.7 S 7 11 4 6 1023.2 1023.2 0.0
30/10:00pm 9.7 7.2 8.1 90 0.8 SSW 11 13 6 7 1023.0 1023.0 0.0
30/09:30pm 10.8 7.3 8.9 88 0.9 SSW 17 22 9 12 1023.1 1023.1 0.0
30/09:00pm 10.5 6.3 8.4 87 1.0 WSW 20 24 11 13 1022.6 1022.6 0.0
30/08:30pm 10.2 6.5 8.1 87 1.0 W 17 19 9 10 1022.5 1022.5 0.0
30/08:00pm 10.1 6.8 7.9 86 1.1 WSW 15 17 8 9 1022.1 1022.2 0.0
30/07:30pm 10.0 6.4 6.7 80 1.5 WSW 15 19 8 10 1021.5 1021.5 0.0
30/07:00pm 11.7 8.1 6.8 72 2.3 SW 15 22 8 12 1020.8 1020.8 0.0
30/06:30pm 13.3 9.1 7.3 67 2.9 SW 19 24 10 13 1020.0 1020.0 0.0
30/06:00pm 14.9 9.0 7.5 61 3.7 SW 28 39 15 21 1019.5 1019.5 0.0
30/05:30pm 16.1 10.0 8.3 60 4.0 SW 30 41 16 22 1019.0 1019.0 0.0
30/05:00pm 17.3 11.1 9.2 59 4.2 SW 32 44 17 24 1018.5 1018.5 0.0
30/04:30pm 18.3 11.8 10.4 60 4.2 SW 35 46 19 25 1017.8 1017.8 0.0
30/04:00pm 20.3 13.9 9.5 50 5.8 SW 33 46 18 25 1017.1 1017.1 0.0
30/03:43pm 21.0 14.7 9.6 48 6.1 WSW 33 52 18 28 1016.9 1016.9 0.0
30/03:30pm 21.0 14.5 8.3 44 6.7 WSW 32 48 17 26 1016.6 1016.6 0.0
30/03:00pm 21.3 13.8 9.5 47 6.3 WSW 39 57 21 31 1016.4 1016.4 0.0
30/02:36pm 22.0 14.3 8.5 42 7.2 WSW 39 61 21 33 1016.2 1016.2 0.0
30/02:30pm 22.1 14.3 8.2 41 7.3 WSW 39 54 21 29 1016.2 1016.2 0.0
30/02:00pm 22.3 14.7 7.7 39 7.6 W 37 56 20 30 1016.2 1016.2 0.0
30/01:58pm 22.5 15.1 8.2 40 7.6 W 37 56 20 30 1016.2 1016.2 0.0
30/01:30pm 22.3 14.5 8.4 41 7.4 WSW 39 52 21 28 1016.5 1016.5 0.0
30/01:12pm 22.8 16.0 9.2 42 7.3 WSW 35 54 19 29 1016.5 1016.5 0.0
30/01:00pm 22.2 15.0 9.0 43 7.1 WSW 37 50 20 27 1016.6 1016.6 0.0
30/12:30pm 22.0 14.6 8.2 41 7.3 W 37 50 20 27 1016.5 1016.5 0.0
30/12:00pm 22.2 15.5 8.3 41 7.3 W 33 46 18 25 1016.4 1016.4 0.0
30/11:30am 21.5 13.9 7.7 41 7.2 W 37 52 20 28 1016.5 1016.5 0.0
30/11:07am 22.0 15.3 8.2 41 7.3 W 33 52 18 28 1016.3 1016.3 0.0
30/11:00am 22.0 14.4 7.4 39 7.6 W 37 48 20 26 1016.3 1016.3 0.0
30/10:30am 22.9 15.8 6.2 34 8.5 W 33 52 18 28 1015.8 1015.8 0.0
30/10:29am 22.6 15.3 5.5 33 8.6 W 33 52 18 28 1015.7 1015.7 0.0
30/10:00am 22.0 13.3 5.8 35 8.2 W 41 54 22 29 1015.8 1015.8 0.0
30/09:36am 22.0 14.9 6.3 36 8.0 W 33 52 18 28 1015.7 1015.7 0.0
30/09:30am 21.9 14.2 7.0 38 7.7 W 37 54 20 29 1015.6 1015.6 0.0
30/09:02am 20.4 14.8 8.7 47 6.2 WNW 28 46 15 25 1015.6 1015.6 0.0
30/09:00am 20.5 14.8 8.5 46 6.3 WNW 28 41 15 22 1015.7 1015.7 0.0
30/08:30am 19.6 14.4 8.9 50 5.6 NW 26 41 14 22 1015.4 1015.4 0.0
30/08:00am 14.8 11.2 9.8 72 2.6 NNE 19 24 10 13 1015.2 1015.2 0.0
30/07:30am 12.6 8.7 8.5 76 2.0 NNE 19 24 10 13 1015.2 1015.2 0.0
30/07:00am 10.3 6.1 7.5 83 1.3 N 19 26 10 14 1015.0 1015.0 0.0
30/06:30am 8.1 4.1 6.6 90 0.7 N 17 24 9 13 1014.5 1014.5 0.0
30/06:00am 7.9 3.2 6.2 89 0.8 N 20 24 11 13 1014.1 1014.1 0.0
30/05:30am 8.1 3.5 6.6 90 0.7 N 20 24 11 13 1013.7 1013.6 0.0
30/05:00am 7.5 2.9 6.3 92 0.5 N 20 24 11 13 1013.3 1013.2 0.0
30/04:30am 6.0 1.7 5.3 95 0.3 N 17 19 9 10 1013.1 1013.0 0.0
30/04:00am 6.2 2.3 5.5 95 0.3 N 15 17 8 9 1012.9 1012.8 0.0
30/03:30am 6.7 2.5 5.8 94 0.4 N 17 19 9 10 1012.6 1012.6 0.0
30/03:00am 6.3 1.7 5.7 96 0.3 N 19 20 10 11 1013.1 1013.0 0.0
30/02:30am 5.9 2.0 5.3 96 0.3 N 15 19 8 10 1013.6 1013.5 0.0
30/02:00am 5.7 2.1 5.0 95 0.3 N 13 17 7 9 1013.9 1013.8 0.0
30/01:30am 5.7 1.7 5.0 95 0.3 N 15 17 8 9 1014.3 1014.3 0.0
30/01:00am 5.8 2.5 4.8 93 0.4 N 11 13 6 7 1014.7 1014.7 0.0
30/12:30am 6.6 3.5 5.4 92 0.5 N 11 13 6 7 1015.0 1015.0 0.0
30/12:00am 7.5 4.2 6.4 93 0.5 N 13 17 7 9 1015.2 1015.2 0.0
 
Date/Time
CST
Temp
°C
App
Temp
°C
Dew
Point
Rel
Hum
%
Delta-T
°C
Wind Press
QNH
hPa
Press
MSL
hPa
Rain
since 9 am
mm
Dir
 
Spd
km/h
Gust
km/h
Spd
kts
Gust
kts
29/11:30pm 7.5 4.5 5.8 89 0.8 N 11 15 6 8 1015.4 1015.4 0.0
29/11:00pm 8.3 5.9 6.8 90 0.7 WSW 9 11 5 6 1015.3 1015.3 0.0
29/10:30pm 8.1 6.7 5.4 83 1.2 WSW 2 9 1 5 1015.3 1015.3 0.0
29/10:00pm 10.7 6.9 7.6 81 1.5 WSW 17 19 9 10 1015.4 1015.4 0.0
29/09:30pm 11.2 7.8 7.7 79 1.7 WSW 15 17 8 9 1015.5 1015.5 0.0
29/09:00pm 12.0 8.6 7.7 75 2.1 W 15 19 8 10 1015.6 1015.6 0.0
29/08:30pm 13.1 9.4 7.8 70 2.6 W 17 20 9 11 1015.7 1015.7 0.0
29/08:00pm 11.7 8.7 7.6 76 2.0 W 13 15 7 8 1015.2 1015.2 0.0
29/07:30pm 13.5 9.9 8.4 71 2.6 W 17 20 9 11 1014.9 1014.9 0.0
29/07:00pm 13.1 9.6 8.6 74 2.3 W 17 22 9 12 1014.2 1014.2 0.0
29/06:30pm 13.5 10.8 9.0 74 2.3 W 13 17 7 9 1013.6 1013.5 0.0
29/06:00pm 18.2 15.9 9.0 55 4.8 W 11 13 6 7 1013.4 1013.3 0.0
29/05:30pm 21.4 18.8 7.6 41 7.2 W 11 15 6 8 1013.3 1013.2 0.0
29/05:00pm 22.6 19.1 7.2 37 8.0 WNW 15 22 8 12 1013.0 1012.9 0.0
29/04:30pm 23.0 18.8 5.9 33 8.7 WNW 17 22 9 12 1012.9 1012.8 0.0
29/04:00pm 22.9 18.3 5.8 33 8.7 NW 19 26 10 14 1013.0 1012.9 0.0
29/03:30pm 22.9 18.6 7.0 36 8.3 NW 19 26 10 14 1013.1 1013.0 0.0
29/03:00pm 22.5 18.2 7.1 37 8.0 NW 19 28 10 15 1013.5 1013.4 0.0
29/02:30pm 22.6 18.0 6.4 35 8.3 WNW 20 30 11 16 1013.9 1013.8 0.0
29/02:00pm 22.5 18.0 7.1 37 8.0 WNW 20 28 11 15 1014.1 1014.1 0.0
29/01:30pm 22.1 17.5 6.7 37 7.9 NW 20 32 11 17 1014.4 1014.4 0.0
29/01:00pm 21.8 17.9 6.9 38 7.7 WNW 17 28 9 15 1014.6 1014.6 0.0
29/12:30pm 21.7 18.7 7.9 41 7.2 W 13 24 7 13 1014.8 1014.8 0.0
29/12:00pm 21.3 18.9 8.6 44 6.7 NW 11 30 6 16 1015.3 1015.3 0.0
29/11:30am 20.8 18.2 9.4 48 6.1 NW 13 24 7 13 1015.8 1015.8 0.0
29/11:00am 19.9 17.7 9.5 51 5.6 W 11 19 6 10 1016.3 1016.3 0.0
29/10:30am 19.0 16.6 10.0 56 4.8 NW 13 20 7 11 1016.5 1016.5 0.0
29/10:00am 18.9 16.2 10.5 58 4.5 NNW 15 22 8 12 1016.9 1016.9 0.0
29/09:30am 17.5 15.6 10.4 63 3.8 NW 11 19 6 10 1017.1 1017.1 0.0
29/09:00am 16.7 14.3 11.4 71 2.9 NNE 15 22 8 12 1017.4 1017.4 0.0
29/08:30am 15.4 13.1 11.8 79 2.0 NNE 15 20 8 11 1017.4 1017.4 0.0
29/08:00am 15.4 14.3 13.2 87 1.2 NNE 11 15 6 8 1017.3 1017.3 0.0
29/07:30am 12.3 11.2 12.0 98 0.2 N 9 11 5 6 1016.9 1016.9 0.0
29/07:00am 9.8 8.1 9.7 99 0.1 NNW 9 11 5 6 1016.6 1016.6 0.0
29/06:30am 7.1 4.7 6.8 98 0.1 N 9 13 5 7 1016.3 1016.3 0.0
29/06:00am 5.9 2.8 5.6 98 0.1 N 11 13 6 7 1016.0 1016.0 0.0

Other Formats:

Comma delimited format used in spreadsheet applications
http://www.bom.gov.au/fwo/IDS60801/IDS60801.95670.axf

JavaScript Object Notation format (JSON) in row-major order
http://www.bom.gov.au/fwo/IDS60801/IDS60801.95670.json